createdAt,value
2023-03-12T00:01:23.946Z,172.40
2023-03-12T00:03:51.026Z,176.52
2023-03-12T00:06:21.951Z,170.30
2023-03-12T00:08:55.891Z,175.98
2023-03-12T00:11:23.774Z,184.40
2023-03-12T00:13:54.809Z,172.52
2023-03-12T00:16:24.164Z,179.23
2023-03-12T00:18:54.888Z,178.88
2023-03-12T00:21:24.190Z,180.32
2023-03-12T00:23:53.929Z,178.30
2023-03-12T00:26:21.913Z,175.57
2023-03-12T00:28:50.882Z,177.25
2023-03-12T00:31:23.232Z,181.02
2023-03-12T00:33:51.814Z,176.45
2023-03-12T00:36:27.324Z,181.95
2023-03-12T00:38:57.036Z,177.98
2023-03-12T00:41:24.787Z,181.07
2023-03-12T00:43:55.491Z,174.38
2023-03-12T00:46:27.625Z,176.40
2023-03-12T00:48:58.736Z,181.63
2023-03-12T00:51:29.567Z,176.52
2023-03-12T00:53:58.600Z,170.43
2023-03-12T00:56:28.188Z,178.05
2023-03-12T00:58:58.929Z,175.15
2023-03-12T01:01:28.007Z,177.93
2023-03-12T01:03:56.001Z,176.25
2023-03-12T01:06:24.649Z,174.25
2023-03-12T01:08:56.695Z,177.00
2023-03-12T01:11:28.676Z,179.68
2023-03-12T01:13:56.815Z,180.55
2023-03-12T01:16:28.523Z,172.75
2023-03-12T01:18:59.523Z,172.32
2023-03-12T01:21:32.842Z,190.05
2023-03-12T01:24:05.806Z,183.75
2023-03-12T01:26:42.343Z,182.10
2023-03-12T01:29:10.766Z,172.15
2023-03-12T01:31:45.697Z,178.80
2023-03-12T01:34:15.467Z,176.50
2023-03-12T01:36:46.270Z,175.02
2023-03-12T01:39:14.741Z,177.48
2023-03-12T01:41:43.397Z,175.25
2023-03-12T01:44:16.982Z,174.23
2023-03-12T01:46:46.454Z,180.82
2023-03-12T01:49:35.496Z,176.77
2023-03-12T01:52:06.667Z,176.48
2023-03-12T01:55:15.680Z,173.73
2023-03-12T01:57:56.214Z,172.98
2023-03-12T02:00:27.776Z,169.10
2023-03-12T02:03:03.335Z,171.07
2023-03-12T02:05:44.822Z,171.65
2023-03-12T02:08:17.127Z,175.05
2023-03-12T02:10:47.892Z,174.60
2023-03-12T02:13:20.778Z,171.73
2023-03-12T02:15:52.153Z,172.38
2023-03-12T02:18:24.483Z,173.73
2023-03-12T02:20:59.783Z,166.90
2023-03-12T02:26:06.058Z,174.68
2023-03-12T02:28:45.927Z,179.40
2023-03-12T02:31:27.645Z,175.40
2023-03-12T02:34:04.164Z,177.40
2023-03-12T02:36:34.937Z,171.20
2023-03-12T02:39:05.051Z,170.55
2023-03-12T02:41:49.216Z,176.57
2023-03-12T02:44:26.520Z,166.65
2023-03-12T02:46:59.479Z,167.15
2023-03-12T02:49:32.897Z,168.77
2023-03-12T02:52:05.171Z,167.95
2023-03-12T02:54:34.965Z,166.15
2023-03-12T02:57:03.018Z,170.77
2023-03-12T02:59:33.384Z,171.73
2023-03-12T03:02:06.989Z,171.77
2023-03-12T03:04:43.226Z,166.18
2023-03-12T03:07:15.267Z,171.60
2023-03-12T03:09:45.479Z,170.07
2023-03-12T03:12:19.276Z,163.90
2023-03-12T03:14:52.167Z,179.07
2023-03-12T03:17:19.969Z,171.32
2023-03-12T03:19:50.174Z,165.57
2023-03-12T03:22:21.774Z,173.30
2023-03-12T03:27:23.586Z,176.00
2023-03-12T03:29:53.125Z,168.48
2023-03-12T03:32:28.804Z,168.27
2023-03-12T03:35:01.789Z,173.85
2023-03-12T03:37:31.388Z,166.90
2023-03-12T03:39:58.638Z,172.77
2023-03-12T03:42:25.855Z,170.57
2023-03-12T03:44:53.984Z,173.25
2023-03-12T03:47:25.082Z,170.25
2023-03-12T03:49:53.473Z,173.73
2023-03-12T03:52:23.726Z,168.73
2023-03-12T03:54:51.939Z,169.95
2023-03-12T03:57:20.292Z,169.88
2023-03-12T03:59:49.250Z,166.00
2023-03-12T04:02:16.506Z,166.10
2023-03-12T04:04:45.614Z,169.90
2023-03-12T04:07:12.961Z,168.43
2023-03-12T04:09:45.222Z,180.00
2023-03-12T04:12:12.841Z,167.05
2023-03-12T04:14:45.488Z,170.95
2023-03-12T04:17:14.195Z,168.30
2023-03-12T04:19:44.446Z,175.20
2023-03-12T04:22:13.688Z,165.80
2023-03-12T04:24:46.890Z,170.23
2023-03-12T04:27:15.983Z,175.35
2023-03-12T04:29:46.354Z,180.18
2023-03-12T04:32:13.690Z,179.13
2023-03-12T04:34:40.493Z,184.45
2023-03-12T04:37:15.901Z,170.52
2023-03-12T04:39:47.356Z,179.63
2023-03-12T04:42:15.633Z,168.27
2023-03-12T04:44:46.439Z,178.43
2023-03-12T04:47:13.254Z,174.88
2023-03-12T04:49:40.538Z,169.15
2023-03-12T04:52:07.525Z,184.13
2023-03-12T04:54:35.601Z,175.48
2023-03-12T04:57:05.507Z,173.43
2023-03-12T04:59:32.655Z,171.23
2023-03-12T05:02:00.138Z,169.98
2023-03-12T05:04:29.756Z,180.18
2023-03-12T05:06:57.900Z,175.02
2023-03-12T05:09:27.664Z,178.95
2023-03-12T05:11:55.347Z,166.10
2023-03-12T05:14:23.339Z,181.85
2023-03-12T05:16:53.474Z,184.70
2023-03-12T05:19:21.115Z,176.32
2023-03-12T05:21:48.667Z,171.70
2023-03-12T05:24:16.333Z,168.50
2023-03-12T05:26:46.288Z,176.65
2023-03-12T05:29:17.353Z,180.88
2023-03-12T05:31:44.846Z,166.70
2023-03-12T05:34:13.428Z,174.45
2023-03-12T05:36:42.813Z,172.80
2023-03-12T05:39:12.446Z,168.60
2023-03-12T05:41:40.101Z,171.25
2023-03-12T05:44:14.303Z,176.50
2023-03-12T05:46:43.890Z,174.90
2023-03-12T05:49:12.866Z,174.23
2023-03-12T05:51:43.915Z,168.25
2023-03-12T05:56:43.858Z,170.88
2023-03-12T05:59:14.172Z,165.60
2023-03-12T06:01:45.472Z,174.32
2023-03-12T06:04:12.949Z,166.00
2023-03-12T06:06:39.947Z,171.93
2023-03-12T06:09:08.749Z,174.32
2023-03-12T06:11:39.330Z,170.02
2023-03-12T06:14:06.450Z,167.10
2023-03-12T06:16:39.461Z,169.32
2023-03-12T06:19:08.641Z,159.77
2023-03-12T06:21:38.170Z,169.23
2023-03-12T06:24:09.215Z,166.88
2023-03-12T06:26:52.055Z,158.35
2023-03-12T06:29:20.938Z,165.20
2023-03-12T06:31:53.026Z,165.13
2023-03-12T06:34:22.116Z,168.23
2023-03-12T06:36:52.802Z,165.80
2023-03-12T06:39:22.075Z,166.30
2023-03-12T06:42:00.030Z,174.63
2023-03-12T06:44:37.357Z,167.02
2023-03-12T06:47:12.052Z,175.85
2023-03-12T06:49:39.269Z,161.60
2023-03-12T06:52:14.123Z,175.32
2023-03-12T06:54:42.203Z,164.60
2023-03-12T06:57:14.004Z,168.75
2023-03-12T06:59:50.525Z,162.10
2023-03-12T07:02:20.285Z,161.80
2023-03-12T07:04:47.183Z,163.52
2023-03-12T07:07:14.323Z,164.02
2023-03-12T07:09:43.349Z,159.63
2023-03-12T07:12:11.427Z,157.05
2023-03-12T07:14:38.937Z,167.38
2023-03-12T07:17:06.187Z,170.30
2023-03-12T07:19:33.058Z,160.65
2023-03-12T07:22:02.438Z,168.95
2023-03-12T07:24:29.716Z,163.65
2023-03-12T07:26:59.322Z,158.95
2023-03-12T07:29:26.520Z,167.38
2023-03-12T07:31:55.790Z,170.02
2023-03-12T07:34:25.185Z,171.65
2023-03-12T07:36:55.266Z,164.18
2023-03-12T07:39:22.648Z,167.27
2023-03-12T07:41:50.393Z,178.07
2023-03-12T07:44:17.291Z,168.80
2023-03-12T07:46:44.614Z,161.23
2023-03-12T07:49:11.608Z,171.10
2023-03-12T07:51:38.808Z,163.75
2023-03-12T07:54:06.286Z,171.88
2023-03-12T07:56:35.058Z,169.95
2023-03-12T07:59:03.149Z,172.38
2023-03-12T08:01:33.016Z,164.65
2023-03-12T08:04:02.932Z,172.45
2023-03-12T08:06:32.490Z,167.48
2023-03-12T08:08:59.730Z,175.82
2023-03-12T08:11:30.501Z,167.18
2023-03-12T08:13:57.341Z,176.00
2023-03-12T08:16:24.487Z,159.57
2023-03-12T08:18:51.671Z,166.25
2023-03-12T08:21:18.707Z,170.07
2023-03-12T08:23:46.369Z,166.35
2023-03-12T08:26:13.700Z,168.45
2023-03-12T08:28:40.880Z,168.80
2023-03-12T08:31:09.802Z,168.70
2023-03-12T08:33:41.301Z,160.68
2023-03-12T08:36:11.175Z,163.02
2023-03-12T08:38:38.280Z,161.70
2023-03-12T08:41:05.510Z,171.35
2023-03-12T08:43:32.610Z,173.93
2023-03-12T08:46:01.866Z,174.40
2023-03-12T08:48:31.168Z,169.68
2023-03-12T08:51:00.010Z,177.80
2023-03-12T08:53:27.907Z,162.93
2023-03-12T08:55:55.992Z,168.20
2023-03-12T08:58:25.438Z,173.10
2023-03-12T09:00:55.921Z,173.02
2023-03-12T09:03:23.675Z,175.02
2023-03-12T09:05:51.422Z,178.75
2023-03-12T09:08:18.658Z,168.90
2023-03-12T09:10:50.257Z,169.25
2023-03-12T09:13:19.461Z,171.98
2023-03-12T09:15:48.804Z,175.45
2023-03-12T09:18:16.609Z,168.82
2023-03-12T09:20:43.919Z,166.90
2023-03-12T09:23:10.690Z,172.50
2023-03-12T09:25:37.576Z,169.25
2023-03-12T09:28:04.640Z,174.38
2023-03-12T09:30:32.390Z,175.35
2023-03-12T09:32:59.311Z,182.35
2023-03-12T09:35:26.503Z,174.98
2023-03-12T09:37:55.929Z,175.73
2023-03-12T09:40:25.916Z,178.63
2023-03-12T09:42:59.068Z,178.15
2023-03-12T09:45:32.739Z,177.27
2023-03-12T09:48:03.109Z,179.10
2023-03-12T09:50:33.542Z,179.20
2023-03-12T09:53:41.323Z,180.27
2023-03-12T09:56:15.041Z,174.98
2023-03-12T09:58:44.797Z,171.57
2023-03-12T10:01:49.733Z,177.10
2023-03-12T10:04:26.950Z,216.93
2023-03-12T10:07:15.731Z,183.98
2023-03-12T10:10:10.859Z,178.63
2023-03-12T10:12:47.721Z,182.40
2023-03-12T10:15:15.455Z,182.48
2023-03-12T10:18:10.773Z,179.98
2023-03-12T10:21:01.588Z,187.30
2023-03-12T10:23:40.053Z,183.20
2023-03-12T10:26:21.404Z,177.00
2023-03-12T10:29:22.357Z,185.55
2023-03-12T10:31:52.573Z,182.18
2023-03-12T10:34:29.307Z,179.70
2023-03-12T10:37:03.098Z,169.88
2023-03-12T10:39:30.303Z,188.68
2023-03-12T10:42:01.051Z,184.90
2023-03-12T10:44:29.152Z,184.93
2023-03-12T10:47:00.192Z,188.32
2023-03-12T10:49:33.235Z,182.52
2023-03-12T10:52:18.034Z,191.32
2023-03-12T10:54:47.260Z,185.25
2023-03-12T10:57:15.949Z,182.30
2023-03-12T10:59:45.453Z,185.45
2023-03-12T11:02:30.903Z,178.98
2023-03-12T11:04:58.967Z,182.40
2023-03-12T11:07:29.252Z,188.48
2023-03-12T11:10:08.790Z,186.50
2023-03-12T11:12:38.065Z,179.13
2023-03-12T11:15:20.978Z,181.25
2023-03-12T11:17:50.317Z,184.52
2023-03-12T11:20:30.520Z,183.38
2023-03-12T11:23:18.111Z,182.60
2023-03-12T11:25:55.837Z,180.00
2023-03-12T11:28:35.001Z,174.98
2023-03-12T11:31:03.457Z,181.57
2023-03-12T11:33:30.797Z,184.25
2023-03-12T11:36:15.674Z,185.60
2023-03-12T11:38:54.255Z,177.32
2023-03-12T11:41:41.831Z,186.32
2023-03-12T11:44:24.193Z,178.20
2023-03-12T11:47:04.529Z,175.77
2023-03-12T11:49:54.117Z,188.68
2023-03-12T11:52:33.319Z,181.05
2023-03-12T11:55:28.513Z,181.00
2023-03-12T11:58:17.001Z,186.38
2023-03-12T12:00:53.016Z,176.15
2023-03-12T12:03:44.554Z,173.82
2023-03-12T12:06:32.587Z,181.02
2023-03-12T12:09:19.968Z,182.95
2023-03-12T12:12:10.569Z,178.80
2023-03-12T12:14:53.421Z,170.95
2023-03-12T12:17:53.788Z,177.27
2023-03-12T12:20:50.873Z,173.63
2023-03-12T12:23:42.296Z,172.98
2023-03-12T12:26:17.118Z,174.30
2023-03-12T12:28:57.029Z,171.85
2023-03-12T12:31:26.868Z,169.15
2023-03-12T12:34:23.868Z,170.85
2023-03-12T12:37:16.783Z,173.20
2023-03-12T12:40:12.781Z,174.48
2023-03-12T12:42:55.617Z,173.77
2023-03-12T12:45:26.723Z,165.40
2023-03-12T12:48:03.518Z,164.48
2023-03-12T12:50:35.326Z,169.45
2023-03-12T12:53:13.929Z,172.35
2023-03-12T12:55:57.329Z,168.05
2023-03-12T13:03:27.344Z,168.23
2023-03-12T13:05:56.761Z,172.55
2023-03-12T13:08:45.172Z,167.32
2023-03-12T13:11:20.086Z,163.88
2023-03-12T13:14:12.377Z,160.68
2023-03-12T13:16:43.973Z,162.68
2023-03-12T13:19:13.926Z,153.68
2023-03-12T13:21:50.804Z,163.15
2023-03-12T13:24:30.228Z,162.63
2023-03-12T13:27:06.138Z,164.10
2023-03-12T13:29:33.201Z,161.27
2023-03-12T13:32:00.370Z,168.93
2023-03-12T13:34:28.229Z,164.35
2023-03-12T13:37:02.581Z,167.35
2023-03-12T13:39:37.340Z,168.10
2023-03-12T13:42:23.280Z,168.27
2023-03-12T13:44:51.995Z,168.43
2023-03-12T13:47:37.488Z,164.48
2023-03-12T13:50:10.997Z,162.65
2023-03-12T13:52:37.911Z,164.20
2023-03-12T13:55:14.310Z,167.02
2023-03-12T13:57:45.950Z,172.90
2023-03-12T14:00:21.253Z,167.15
2023-03-12T14:03:03.568Z,158.07
2023-03-12T14:05:34.731Z,167.60
2023-03-12T14:08:41.008Z,173.68
2023-03-12T14:11:16.543Z,164.68
2023-03-12T14:14:19.108Z,162.98
2023-03-12T14:16:51.631Z,166.73
2023-03-12T14:19:23.176Z,166.85
2023-03-12T14:21:52.320Z,151.25
2023-03-12T14:24:43.719Z,164.60
2023-03-12T14:27:32.388Z,154.32
2023-03-12T14:30:04.342Z,153.00
2023-03-12T14:32:34.892Z,156.65
2023-03-12T14:35:14.698Z,157.48
2023-03-12T14:37:49.563Z,157.93
2023-03-12T14:40:30.148Z,153.35
2023-03-12T14:43:02.442Z,159.77
2023-03-12T14:45:30.425Z,150.95
2023-03-12T14:47:59.064Z,156.77
2023-03-12T14:50:41.972Z,151.40
2023-03-12T14:53:39.854Z,158.95
2023-03-12T14:56:09.330Z,156.20
2023-03-12T14:58:44.080Z,162.57
2023-03-12T15:01:16.724Z,154.38
2023-03-12T15:03:51.743Z,151.40
2023-03-12T15:06:38.064Z,160.50
2023-03-12T15:09:07.848Z,164.35
2023-03-12T15:11:37.666Z,159.02
2023-03-12T15:14:09.292Z,158.43
2023-03-12T15:16:37.695Z,161.18
2023-03-12T15:19:05.351Z,160.18
2023-03-12T15:21:35.397Z,161.55
2023-03-12T15:24:06.663Z,159.50
2023-03-12T15:26:39.163Z,153.45
2023-03-12T15:29:28.734Z,160.32
2023-03-12T15:31:58.846Z,160.30
2023-03-12T15:34:38.159Z,151.82
2023-03-12T15:37:24.802Z,148.85
2023-03-12T15:39:53.365Z,158.82
2023-03-12T15:42:25.222Z,157.55
2023-03-12T15:44:58.147Z,164.95
2023-03-12T15:47:32.384Z,162.18
2023-03-12T15:50:52.371Z,165.18
2023-03-12T15:53:19.496Z,169.63
2023-03-12T15:56:25.347Z,165.13
2023-03-12T15:59:17.302Z,161.45
2023-03-12T16:01:52.007Z,160.53
2023-03-12T16:04:20.246Z,163.63
2023-03-12T16:06:49.122Z,170.60
2023-03-12T16:09:27.301Z,162.48
2023-03-12T16:11:55.903Z,169.02
2023-03-12T16:14:30.389Z,163.00
2023-03-12T16:16:57.382Z,163.95
2023-03-12T16:19:28.388Z,160.55
2023-03-12T16:21:57.847Z,159.57
2023-03-12T16:24:25.049Z,165.68
2023-03-12T16:26:55.751Z,163.52
2023-03-12T16:29:26.483Z,159.27
2023-03-12T16:31:56.136Z,163.68
2023-03-12T16:34:25.297Z,159.20
2023-03-12T16:36:52.217Z,159.07
2023-03-12T16:39:19.513Z,169.02
2023-03-12T16:41:47.507Z,157.43
2023-03-12T16:44:18.834Z,163.85
2023-03-12T16:46:46.804Z,163.02
2023-03-12T16:49:18.373Z,160.80
2023-03-12T16:51:48.320Z,165.43
2023-03-12T16:54:15.505Z,167.95
2023-03-12T16:56:48.425Z,163.00
2023-03-12T16:59:25.555Z,162.10
2023-03-12T17:01:53.145Z,162.13
2023-03-12T17:04:22.511Z,163.05
2023-03-12T17:06:49.368Z,169.75
2023-03-12T17:09:16.610Z,168.15
2023-03-12T17:11:45.793Z,163.93
2023-03-12T17:14:22.342Z,161.73
2023-03-12T17:16:50.648Z,159.50
2023-03-12T17:19:24.742Z,165.02
2023-03-12T17:21:55.313Z,160.57
2023-03-12T17:24:28.223Z,165.10
2023-03-12T17:26:58.427Z,159.85
2023-03-12T17:29:30.081Z,161.48
2023-03-12T17:32:03.598Z,159.00
2023-03-12T17:34:31.100Z,164.07
2023-03-12T17:36:59.678Z,165.32
2023-03-12T17:39:26.989Z,165.48
2023-03-12T17:42:01.477Z,164.48
2023-03-12T17:44:36.549Z,174.45
2023-03-12T17:47:06.317Z,161.43
2023-03-12T17:49:37.061Z,163.50
2023-03-12T17:52:04.147Z,175.57
2023-03-12T17:54:33.591Z,157.18
2023-03-12T17:57:02.584Z,167.10
2023-03-12T17:59:31.637Z,169.13
2023-03-12T18:02:01.348Z,161.27
2023-03-12T18:04:28.503Z,170.13
2023-03-12T18:06:59.606Z,171.30
2023-03-12T18:09:27.502Z,161.50
2023-03-12T18:11:54.736Z,164.77
2023-03-12T18:14:22.219Z,160.68
2023-03-12T18:16:49.576Z,165.75
2023-03-12T18:19:17.567Z,161.02
2023-03-12T18:21:46.610Z,161.73
2023-03-12T18:24:14.645Z,157.52
2023-03-12T18:26:43.592Z,159.50
2023-03-12T18:29:10.788Z,163.10
2023-03-12T18:31:39.987Z,157.20
2023-03-12T18:34:07.119Z,163.07
2023-03-12T18:36:34.385Z,162.50
2023-03-12T18:39:04.669Z,172.70
2023-03-12T18:41:33.174Z,172.63
2023-03-12T18:44:00.964Z,168.40
2023-03-12T18:46:28.645Z,177.60
2023-03-12T18:48:55.601Z,169.00
2023-03-12T18:51:22.624Z,164.00
2023-03-12T18:53:51.903Z,174.30
2023-03-12T18:56:19.071Z,164.90
2023-03-12T18:58:46.014Z,173.00
2023-03-12T19:01:15.581Z,164.90
2023-03-12T19:03:42.904Z,158.73
2023-03-12T19:06:13.200Z,170.80
2023-03-12T19:08:42.083Z,163.30
2023-03-12T19:11:14.246Z,165.20
2023-03-12T19:13:41.783Z,155.23
2023-03-12T19:16:10.336Z,165.90
2023-03-12T19:18:39.377Z,164.52
2023-03-12T19:21:13.636Z,167.02
2023-03-12T19:23:40.904Z,161.15
2023-03-12T19:26:15.986Z,159.75
2023-03-12T19:28:43.221Z,171.60
2023-03-12T19:31:13.082Z,165.77
2023-03-12T19:33:40.043Z,164.35
2023-03-12T19:36:08.046Z,160.93
2023-03-12T19:38:34.983Z,164.38
2023-03-12T19:41:01.873Z,165.70
2023-03-12T19:43:28.871Z,163.65
2023-03-12T19:45:58.011Z,165.50
2023-03-12T19:48:28.006Z,164.18
2023-03-12T19:50:56.245Z,165.82
2023-03-12T19:53:25.709Z,169.07
2023-03-12T19:55:52.954Z,161.93
2023-03-12T19:58:20.001Z,163.52
2023-03-12T20:00:48.695Z,151.13
2023-03-12T20:03:17.346Z,153.77
2023-03-12T20:05:47.010Z,153.63
2023-03-12T20:08:13.895Z,157.43
2023-03-12T20:10:41.051Z,150.52
2023-03-12T20:13:13.424Z,153.23
2023-03-12T20:15:47.458Z,156.45
2023-03-12T20:18:15.659Z,144.63
2023-03-12T20:20:43.723Z,150.30
2023-03-12T20:23:15.301Z,147.98
2023-03-12T20:25:51.777Z,151.23
2023-03-12T20:28:19.428Z,151.88
2023-03-12T20:30:46.549Z,148.63
2023-03-12T20:33:16.796Z,152.45
2023-03-12T20:35:47.213Z,150.85
2023-03-12T20:38:16.804Z,146.27
2023-03-12T20:40:47.619Z,149.65
2023-03-12T20:43:16.025Z,149.40
2023-03-12T20:45:47.763Z,150.63
2023-03-12T20:48:14.911Z,152.60
2023-03-12T20:50:43.285Z,146.38
2023-03-12T20:53:13.286Z,143.18
2023-03-12T20:55:47.095Z,149.20
2023-03-12T20:58:15.266Z,148.38
2023-03-12T21:00:44.548Z,148.45
2023-03-12T21:03:19.621Z,152.18
2023-03-12T21:05:57.761Z,152.60
2023-03-12T21:08:27.081Z,155.20
2023-03-12T21:10:54.335Z,156.27
2023-03-12T21:13:23.980Z,156.27
2023-03-12T21:15:53.757Z,152.65
2023-03-12T21:18:20.691Z,152.80
2023-03-12T21:20:52.215Z,152.20
2023-03-12T21:23:22.597Z,146.27
2023-03-12T21:26:00.257Z,144.07
2023-03-12T21:28:29.052Z,149.15
2023-03-12T21:31:07.779Z,153.25
2023-03-12T21:33:35.520Z,148.80
2023-03-12T21:36:10.336Z,153.50
2023-03-12T21:38:40.235Z,150.27
2023-03-12T21:41:10.384Z,153.85
2023-03-12T21:43:40.608Z,149.80
2023-03-12T21:46:09.775Z,152.85
2023-03-12T21:48:40.530Z,144.18
2023-03-12T21:51:09.630Z,151.27
2023-03-12T21:53:38.255Z,150.68
2023-03-12T21:56:08.559Z,149.43
2023-03-12T21:58:38.536Z,145.38
2023-03-12T22:01:09.141Z,151.63
2023-03-12T22:03:41.277Z,151.43
2023-03-12T22:06:14.139Z,147.95
2023-03-12T22:08:44.210Z,145.93
2023-03-12T22:11:13.958Z,146.73
2023-03-12T22:13:44.631Z,152.75
2023-03-12T22:16:18.857Z,147.60
2023-03-12T22:18:47.009Z,153.00
2023-03-12T22:21:16.867Z,149.43
2023-03-12T22:23:48.219Z,153.05
2023-03-12T22:26:15.957Z,150.75
2023-03-12T22:28:48.120Z,151.45
2023-03-12T22:31:16.125Z,146.35
2023-03-12T22:33:46.643Z,151.45
2023-03-12T22:36:16.111Z,152.35
2023-03-12T22:38:44.425Z,144.45
2023-03-12T22:41:39.322Z,143.55
2023-03-12T22:44:12.656Z,145.18
2023-03-12T22:46:44.980Z,148.13
2023-03-12T22:49:12.581Z,147.93
2023-03-12T22:51:39.840Z,151.75
2023-03-12T22:54:08.916Z,144.13
2023-03-12T22:56:37.103Z,143.55
2023-03-12T22:59:08.033Z,146.00
2023-03-12T23:01:35.714Z,145.50
2023-03-12T23:04:04.351Z,145.23
2023-03-12T23:06:35.095Z,153.30
2023-03-12T23:09:07.161Z,146.35
2023-03-12T23:11:36.923Z,144.57
2023-03-12T23:14:04.472Z,143.45
2023-03-12T23:16:31.653Z,150.70
2023-03-12T23:18:59.794Z,150.15
2023-03-12T23:21:27.128Z,146.38
2023-03-12T23:23:57.424Z,151.45
2023-03-12T23:26:27.002Z,152.10
2023-03-12T23:28:58.963Z,150.98
2023-03-12T23:31:30.187Z,149.07
2023-03-12T23:33:58.792Z,144.55
2023-03-12T23:36:28.837Z,144.57
2023-03-12T23:39:01.214Z,147.77
2023-03-12T23:41:35.307Z,152.77
2023-03-12T23:44:02.924Z,149.60
2023-03-12T23:46:32.867Z,147.65
2023-03-12T23:49:02.286Z,149.60
2023-03-12T23:51:37.249Z,152.27
2023-03-12T23:54:05.765Z,148.43
2023-03-12T23:56:35.629Z,151.32
2023-03-12T23:59:07.262Z,146.02
